Time;durP1;ratioP1;P1;durP2;ratioP2;P2;SDS_P1;SDS_P2;PMS_P1;PMS_P2;Temp;Humidity;BMP_temperature;BMP_pressure;BME280_temperature;BME280_humidity;BME280_pressure;Samples;Min_cycle;Max_cycle;Signal;HPM_P1;HPM_P2
2024/01/29 00:04:31;;;;;;;9.40;4.47;;;;;;;1.12;99.39;148950.38;10673568;27;20058;-76
2024/01/29 00:09:33;;;;;;;6.47;5.03;;;;;;;1.31;100.00;148996.50;10672813;27;20125;-77
2024/01/29 00:14:35;;;;;;;8.18;4.90;;;;;;;1.29;99.62;148991.41;10672589;27;20039;-76
2024/01/29 00:19:37;;;;;;;5.97;4.70;;;;;;;1.31;99.94;148996.50;10672168;27;20035;-76
2024/01/29 00:24:40;;;;;;;5.85;4.47;;;;;;;1.43;98.36;149027.28;10671363;27;20043;-77
2024/01/29 00:29:42;;;;;;;8.45;5.88;;;;;;;1.34;99.12;149004.22;10672044;27;20042;-76
2024/01/29 00:34:46;;;;;;;7.13;5.10;;;;;;;1.30;98.22;148993.94;10671387;27;20043;-76
2024/01/29 00:39:48;;;;;;;7.68;5.07;;;;;;;1.43;98.18;149028.56;10653659;27;20037;-76
2024/01/29 00:44:51;;;;;;;5.63;4.78;;;;;;;1.31;98.55;148997.78;10641694;27;20137;-77
2024/01/29 00:49:53;;;;;;;6.60;4.35;;;;;;;1.26;98.49;148986.25;10661583;27;20110;-76
2024/01/29 00:54:55;;;;;;;9.35;4.88;;;;;;;1.19;99.43;148968.28;10679317;27;20451;-76
2024/01/29 00:59:57;;;;;;;11.68;5.30;;;;;;;1.17;98.71;148963.19;10679352;27;20541;-76
2024/01/29 01:04:59;;;;;;;10.07;6.13;;;;;;;1.23;97.76;148977.25;10679108;27;20042;-76
2024/01/29 01:10:01;;;;;;;12.02;4.75;;;;;;;1.32;97.97;148999.06;10677723;27;20039;-77
2024/01/29 01:15:03;;;;;;;8.38;5.43;;;;;;;1.33;97.11;149002.94;10678024;27;20070;-76
2024/01/29 01:20:06;;;;;;;6.45;3.75;;;;;;;1.17;97.01;148963.19;10677433;27;20045;-76
2024/01/29 01:25:08;;;;;;;7.10;3.80;;;;;;;1.06;97.88;148934.97;10676598;27;20459;-75
2024/01/29 01:30:10;;;;;;;5.97;4.00;;;;;;;1.16;96.29;148960.63;10677409;27;20039;-76
2024/01/29 01:35:12;;;;;;;7.65;5.53;;;;;;;1.08;96.86;148938.84;10657864;27;20578;-76
2024/01/29 01:40:14;;;;;;;9.18;5.03;;;;;;;1.16;96.75;148959.34;10675267;27;20046;-76
2024/01/29 01:45:16;;;;;;;7.32;4.88;;;;;;;1.12;95.94;148950.38;10677230;27;20039;-77
2024/01/29 01:50:17;;;;;;;7.82;4.40;;;;;;;1.19;96.03;148968.28;10675467;27;20039;-77
2024/01/29 01:55:19;;;;;;;9.10;4.60;;;;;;;1.24;95.90;148979.88;10675745;27;20091;-76
2024/01/29 02:00:21;;;;;;;7.13;4.82;;;;;;;1.21;95.57;148972.16;10656889;27;20113;-76
2024/01/29 02:05:23;;;;;;;6.38;4.70;;;;;;;1.25;95.97;148983.69;10675887;27;20047;-75
2024/01/29 02:10:25;;;;;;;9.93;4.47;;;;;;;1.26;95.55;148984.97;10674974;27;20043;-76
2024/01/29 02:15:27;;;;;;;9.88;4.78;;;;;;;1.20;95.25;148969.63;10675827;27;20038;-77
2024/01/29 02:20:29;;;;;;;10.82;4.65;;;;;;;1.24;95.18;148979.88;10657396;27;20045;-76
2024/01/29 02:25:31;;;;;;;5.75;4.47;;;;;;;1.24;94.71;148981.16;10676094;27;20102;-76
2024/01/29 02:30:33;;;;;;;8.10;4.88;;;;;;;1.20;94.60;148970.88;10675137;27;20456;-76
2024/01/29 02:35:35;;;;;;;6.95;3.95;;;;;;;1.26;93.76;148986.25;10675307;27;20399;-77
2024/01/29 02:40:37;;;;;;;7.90;5.22;;;;;;;1.21;94.56;148973.44;10675454;27;20087;-76
2024/01/29 02:45:39;;;;;;;8.95;5.32;;;;;;;1.16;94.78;148959.34;10674810;27;20038;-77
2024/01/29 02:50:40;;;;;;;7.47;4.75;;;;;;;1.15;94.87;148958.06;10674967;27;20042;-75
2024/01/29 02:55:42;;;;;;;8.00;5.18;;;;;;;1.14;95.16;148955.47;10673507;27;20088;-76
2024/01/29 03:00:44;;;;;;;10.25;5.93;;;;;;;1.16;94.75;148960.63;10673484;27;20043;-76
2024/01/29 03:05:46;;;;;;;6.50;4.40;;;;;;;1.12;95.20;148950.38;10673528;27;20383;-77
2024/01/29 03:10:48;;;;;;;7.38;5.15;;;;;;;0.93;95.31;148901.66;10673529;27;20043;-76
2024/01/29 03:15:50;;;;;;;12.93;5.45;;;;;;;0.99;95.02;148917.06;10672983;27;20043;-77
2024/01/29 03:20:53;;;;;;;6.68;4.47;;;;;;;0.82;96.31;148874.78;10655359;27;20145;-76
2024/01/29 03:25:54;;;;;;;9.38;5.55;;;;;;;0.87;95.67;148886.31;10674427;27;20038;-75
2024/01/29 03:30:56;;;;;;;12.82;5.10;;;;;;;0.94;95.16;148904.25;10672592;27;20387;-76
2024/01/29 03:36:03;;;;;;;9.05;5.68;;;;;;;0.88;95.95;148888.84;10671747;27;20406;-76
2024/01/29 03:41:04;;;;;;;7.27;5.33;;;;;;;0.94;95.28;148904.25;10654969;27;20101;-75
2024/01/29 03:46:06;;;;;;;7.72;5.65;;;;;;;0.99;94.65;148918.34;10672642;27;20050;-76
2024/01/29 03:51:09;;;;;;;10.02;5.43;;;;;;;0.96;94.97;148910.63;10672173;27;20038;-77
2024/01/29 03:56:11;;;;;;;8.05;5.22;;;;;;;0.95;94.90;148906.81;10671647;27;20045;-76
2024/01/29 04:01:12;;;;;;;7.43;5.95;;;;;;;0.94;94.13;148905.53;10670462;27;20038;-76
2024/01/29 04:06:14;;;;;;;7.65;5.10;;;;;;;0.90;94.26;148895.28;10653248;27;20141;-76
2024/01/29 04:11:16;;;;;;;8.70;5.25;;;;;;;0.85;94.22;148881.19;10653415;27;20050;-76
2024/01/29 04:16:18;;;;;;;8.60;6.07;;;;;;;0.87;93.80;148886.31;10672294;27;20126;-76
2024/01/29 04:21:19;;;;;;;7.25;5.78;;;;;;;0.89;93.58;148891.47;10678760;27;20077;-77
2024/01/29 04:26:21;;;;;;;8.32;5.68;;;;;;;0.87;93.70;148886.31;10679926;27;20379;-76
2024/01/29 04:31:23;;;;;;;6.93;5.35;;;;;;;0.96;93.38;148909.34;10679501;27;20409;-75
2024/01/29 04:36:25;;;;;;;10.15;5.38;;;;;;;0.98;92.80;148914.50;10680566;27;20457;-77
2024/01/29 04:41:27;;;;;;;9.35;5.78;;;;;;;0.84;93.15;148879.94;10679451;27;20500;-77
2024/01/29 04:46:30;;;;;;;7.15;5.15;;;;;;;0.90;93.13;148895.28;10683785;27;20555;-75
2024/01/29 04:51:32;;;;;;;6.90;5.15;;;;;;;0.88;92.30;148888.84;10679972;27;20054;-76
2024/01/29 04:56:34;;;;;;;10.57;6.43;;;;;;;0.92;91.95;148900.38;10661241;27;20042;-76
2024/01/29 05:01:35;;;;;;;5.97;4.45;;;;;;;0.94;91.62;148905.53;10660677;27;20409;-77
2024/01/29 05:06:37;;;;;;;9.90;5.47;;;;;;;0.90;91.55;148894.00;10677905;27;20035;-76
2024/01/29 05:11:39;;;;;;;10.25;6.15;;;;;;;0.95;91.13;148908.09;10679488;27;20538;-77
2024/01/29 05:16:42;;;;;;;8.55;5.38;;;;;;;0.77;91.82;148861.97;10677590;27;20099;-77
2024/01/29 05:21:43;;;;;;;7.95;5.45;;;;;;;0.73;91.90;148851.72;10677228;27;20064;-77
2024/01/29 05:26:46;;;;;;;8.23;4.90;;;;;;;0.73;90.54;148853.00;10676908;27;20094;-77
2024/01/29 05:31:48;;;;;;;9.27;5.45;;;;;;;0.79;90.75;148867.06;10676967;27;20452;-76
2024/01/29 05:36:50;;;;;;;8.05;5.28;;;;;;;0.77;90.26;148861.97;10678501;27;20046;-76
2024/01/29 05:41:52;;;;;;;7.07;4.72;;;;;;;0.69;91.09;148842.75;10677984;27;20042;-75
2024/01/29 05:46:54;;;;;;;6.95;4.88;;;;;;;0.62;91.79;148823.53;10676824;27;20383;-77
2024/01/29 05:51:55;;;;;;;6.95;5.80;;;;;;;0.83;90.42;148877.31;10676204;27;20518;-76
2024/01/29 05:56:59;;;;;;;7.57;4.60;;;;;;;0.78;89.81;148864.53;10659861;27;20459;-76
2024/01/29 06:02:00;;;;;;;6.63;4.82;;;;;;;0.75;89.88;148858.16;10659739;27;20451;-77
2024/01/29 06:07:06;;;;;;;11.23;5.00;;;;;;;0.92;88.27;148900.38;10678457;27;20042;-76
2024/01/29 06:12:11;;;;;;;7.15;5.70;;;;;;;0.78;89.73;148863.25;10659866;27;20129;-75
2024/01/29 06:17:13;;;;;;;9.20;4.80;;;;;;;0.74;88.72;148855.53;10674727;27;20569;-75
2024/01/29 06:22:16;;;;;;;6.70;5.05;;;;;;;0.67;88.68;148837.66;10674568;27;20077;-76
2024/01/29 06:27:18;;;;;;;6.05;4.40;;;;;;;0.80;88.18;148869.66;10655984;27;20037;-75
2024/01/29 06:32:20;;;;;;;7.45;4.68;;;;;;;0.66;88.55;148833.78;10673257;27;20043;-75
2024/01/29 06:37:22;;;;;;;5.43;4.68;;;;;;;0.86;87.67;148885.03;10655515;27;20062;-75
2024/01/29 06:42:24;;;;;;;9.63;5.10;;;;;;;0.84;87.22;148878.59;10653693;27;20095;-75
2024/01/29 06:47:26;;;;;;;6.85;5.40;;;;;;;0.91;86.68;148897.84;10673473;27;20050;-75
2024/01/29 06:52:28;;;;;;;7.05;5.18;;;;;;;0.88;86.47;148888.84;10672906;27;20043;-75
2024/01/29 06:57:30;;;;;;;10.32;5.47;;;;;;;0.96;86.08;148910.63;10654626;27;20043;-75
2024/01/29 07:02:32;;;;;;;7.68;5.40;;;;;;;0.89;86.50;148892.72;10654250;27;20039;-76
2024/01/29 07:07:33;;;;;;;5.68;5.05;;;;;;;1.00;85.87;148920.88;10670603;27;20031;-74
2024/01/29 07:12:35;;;;;;;7.45;5.03;;;;;;;1.06;85.26;148933.69;10672251;27;20072;-76
2024/01/29 07:17:37;;;;;;;12.13;6.20;;;;;;;0.99;85.50;148918.34;10672009;27;20038;-76
2024/01/29 07:22:42;;;;;;;12.55;5.88;;;;;;;1.09;85.16;148941.41;10653117;27;20066;-76
2024/01/29 07:27:46;;;;;;;8.18;5.63;;;;;;;0.94;85.82;148905.53;10652249;27;20045;-76
2024/01/29 07:32:48;;;;;;;7.05;4.70;;;;;;;0.96;85.92;148910.63;10671208;27;20047;-76
2024/01/29 07:37:51;;;;;;;8.75;5.07;;;;;;;1.21;84.66;148973.44;10671607;27;20053;-75
2024/01/29 07:42:52;;;;;;;8.27;5.25;;;;;;;1.37;83.19;149013.13;10671894;27;20038;-75
2024/01/29 07:47:54;;;;;;;8.57;4.75;;;;;;;1.49;82.20;149042.63;10671065;27;20046;-75
2024/01/29 07:52:56;;;;;;;9.18;5.35;;;;;;;1.47;82.21;149038.81;10652155;27;20085;-77
2024/01/29 07:57:58;;;;;;;7.68;5.70;;;;;;;1.36;83.41;149009.31;10651620;27;20038;-75
2024/01/29 08:03:00;;;;;;;7.43;5.63;;;;;;;1.61;82.25;149072.13;10671206;27;20042;-75
2024/01/29 08:08:02;;;;;;;14.48;5.85;;;;;;;1.77;80.77;149113.13;10669947;27;20466;-76
2024/01/29 08:13:04;;;;;;;7.63;5.00;;;;;;;2.01;79.18;149174.69;10669190;27;20542;-76
2024/01/29 08:18:06;;;;;;;9.23;5.22;;;;;;;2.12;78.63;149201.59;10670666;27;20039;-76
2024/01/29 08:23:08;;;;;;;8.48;5.45;;;;;;;2.19;77.41;149219.56;10672297;27;20043;-75
2024/01/29 08:28:11;;;;;;;5.13;4.57;;;;;;;1.93;79.34;149152.91;10672251;27;20401;-76
2024/01/29 08:33:13;;;;;;;6.65;4.63;;;;;;;2.19;78.39;149218.31;10670359;27;20042;-75
2024/01/29 08:38:15;;;;;;;8.65;5.50;;;;;;;2.44;76.64;149281.19;10669612;27;20031;-75
2024/01/29 08:43:17;;;;;;;6.45;4.85;;;;;;;2.64;74.74;149331.19;10652121;27;20043;-77
2024/01/29 08:48:19;;;;;;;7.82;4.78;;;;;;;2.62;75.45;149327.34;10653196;27;20038;-76
2024/01/29 08:53:21;;;;;;;7.78;4.65;;;;;;;2.53;75.35;149305.53;10655906;27;20107;-77
2024/01/29 08:58:23;;;;;;;6.30;4.32;;;;;;;2.84;73.88;149382.53;10670312;27;20495;-74
2024/01/29 09:03:27;;;;;;;5.68;4.28;;;;;;;2.83;73.44;149378.66;10652083;27;20039;-74
2024/01/29 09:08:31;;;;;;;4.90;4.32;;;;;;;2.91;73.61;149399.19;10658573;27;20043;-76
2024/01/29 09:13:33;;;;;;;7.80;5.32;;;;;;;3.10;72.63;149446.66;10660017;27;20047;-76
2024/01/29 09:18:35;;;;;;;6.43;4.55;;;;;;;3.24;71.29;149483.91;10677920;27;20068;-77
2024/01/29 09:23:40;;;;;;;6.63;4.45;;;;;;;3.18;71.75;149467.19;10676761;27;20043;-75
2024/01/29 09:28:43;;;;;;;7.63;4.45;;;;;;;3.65;69.47;149586.63;10656781;27;20049;-74
2024/01/29 09:33:45;;;;;;;5.78;4.13;;;;;;;3.72;68.37;149603.34;10677423;27;20107;-75
2024/01/29 09:38:47;;;;;;;6.63;3.92;;;;;;;4.07;66.99;149690.63;10675479;27;20347;-75
2024/01/29 09:43:53;;;;;;;7.53;4.35;;;;;;;4.10;66.80;149698.34;10675998;27;20459;-74
2024/01/29 09:48:55;;;;;;;4.95;3.50;;;;;;;4.22;65.58;149729.19;10675241;27;20066;-76
2024/01/29 09:53:59;;;;;;;5.07;3.72;;;;;;;4.40;65.97;149774.16;10674776;27;20047;-74
2024/01/29 09:59:01;;;;;;;5.80;3.97;;;;;;;4.27;66.65;149742.03;10674936;27;20062;-75
2024/01/29 10:04:04;;;;;;;6.55;4.28;;;;;;;4.44;65.18;149785.72;10673202;27;20047;-76
2024/01/29 10:09:06;;;;;;;4.55;3.67;;;;;;;4.52;65.09;149806.28;10655330;27;20052;-75
2024/01/29 10:14:08;;;;;;;6.18;3.88;;;;;;;5.05;62.48;149938.69;10674651;27;20041;-75
2024/01/29 10:19:12;;;;;;;6.22;3.95;;;;;;;4.99;62.65;149924.50;10674306;27;20077;-75
2024/01/29 10:24:16;;;;;;;4.68;3.22;;;;;;;4.97;62.71;149918.13;10674125;27;20039;-76
2024/01/29 10:29:18;;;;;;;5.63;3.72;;;;;;;5.02;62.13;149932.25;10655753;27;20034;-75
2024/01/29 10:34:23;;;;;;;4.07;3.13;;;;;;;5.15;61.39;149964.38;10672959;27;20038;-75
2024/01/29 10:39:28;;;;;;;6.07;3.25;;;;;;;5.62;59.29;150082.66;10654736;27;20585;-75
2024/01/29 10:44:33;;;;;;;4.57;3.20;;;;;;;5.56;59.30;150067.25;10672291;27;20513;-74
2024/01/29 10:49:36;;;;;;;5.18;2.78;;;;;;;5.82;58.60;150134.13;10672063;27;20046;-76
2024/01/29 10:54:38;;;;;;;5.38;3.25;;;;;;;5.65;58.87;150089.13;10672450;27;20066;-76
2024/01/29 10:59:42;;;;;;;5.55;3.13;;;;;;;5.94;57.96;150162.50;10635986;27;20046;-75
2024/01/29 11:04:44;;;;;;;4.30;3.50;;;;;;;6.34;56.08;150264.16;10653202;27;20070;-75
2024/01/29 11:10:24;;;;;;;5.72;3.22;;;;;;;6.69;54.28;150352.97;10653385;27;20039;-76
2024/01/29 11:15:26;;;;;;;4.45;2.38;;;;;;;7.11;51.83;150457.22;10672228;27;20052;-76
2024/01/29 11:20:31;;;;;;;6.00;2.80;;;;;;;7.90;51.05;150656.91;10646108;27;20042;-75
2024/01/29 11:25:36;;;;;;;4.90;3.03;;;;;;;8.19;49.17;150730.31;10671614;27;20066;-75
2024/01/29 11:30:39;;;;;;;4.22;2.60;;;;;;;9.06;48.04;150950.84;10671223;27;20059;-75
2024/01/29 11:35:42;;;;;;;4.00;2.65;;;;;;;9.05;46.43;150949.56;10672309;27;20053;-76
2024/01/29 11:40:49;;;;;;;3.63;2.80;;;;;;;9.16;46.45;150975.34;10671185;27;20115;-75
2024/01/29 11:45:53;;;;;;;3.28;2.67;;;;;;;9.21;44.86;150988.22;10670888;27;20091;-76
2024/01/29 11:50:57;;;;;;;2.65;2.13;;;;;;;8.99;44.87;150934.09;10670765;27;20547;-75
2024/01/29 11:55:59;;;;;;;2.97;2.17;;;;;;;9.08;44.75;150956.03;10634755;27;20046;-78
2024/01/29 12:01:01;;;;;;;2.45;2.20;;;;;;;9.33;45.25;151019.19;10670342;27;20034;-75
2024/01/29 12:06:04;;;;;;;2.83;2.20;;;;;;;9.20;45.23;150985.66;10670768;27;20057;-76
2024/01/29 12:11:07;;;;;;;5.90;3.28;;;;;;;9.11;45.30;150963.72;10653581;27;20462;-75
2024/01/29 12:16:10;;;;;;;4.68;2.92;;;;;;;8.65;46.26;150846.41;10652886;27;20107;-75
2024/01/29 12:21:12;;;;;;;3.60;2.25;;;;;;;9.03;46.14;150944.44;10673251;27;20062;-75
2024/01/29 12:26:25;;;;;;;3.65;2.40;;;;;;;9.19;44.57;150983.09;10673360;27;20041;-76
2024/01/29 12:31:27;;;;;;;4.03;2.28;;;;;;;9.52;44.84;151066.97;10672331;27;20037;-75
2024/01/29 12:36:29;;;;;;;4.15;2.22;;;;;;;8.82;45.32;150891.53;10673274;27;20042;-75
2024/01/29 12:41:34;;;;;;;4.15;2.55;;;;;;;8.59;45.98;150833.53;10658808;27;20094;-74
2024/01/29 12:46:36;;;;;;;3.40;2.15;;;;;;;7.89;48.15;150654.31;10680267;27;20038;-74
2024/01/29 12:51:38;;;;;;;6.18;2.95;;;;;;;7.69;48.69;150605.34;10644429;27;20421;-75
2024/01/29 12:56:39;;;;;;;4.43;3.08;;;;;;;7.73;49.00;150615.66;10679903;27;20443;-75
2024/01/29 13:01:41;;;;;;;4.75;2.63;;;;;;;7.52;49.14;150562.81;10678811;27;20039;-75
2024/01/29 13:06:44;;;;;;;5.82;2.88;;;;;;;7.44;49.51;150542.25;10660909;27;20046;-76
2024/01/29 13:11:49;;;;;;;4.28;3.33;;;;;;;7.70;48.60;150606.63;10667320;27;20034;-75
2024/01/29 13:16:53;;;;;;;4.80;2.85;;;;;;;7.58;49.17;150577.03;10659921;27;20042;-74
2024/01/29 13:21:55;;;;;;;3.47;2.58;;;;;;;7.45;49.88;150543.53;10677952;27;20458;-74
2024/01/29 13:26:58;;;;;;;4.53;3.03;;;;;;;7.40;50.57;150530.66;10677174;27;20042;-74
2024/01/29 13:31:59;;;;;;;3.17;2.30;;;;;;;6.99;51.37;150428.88;10677448;27;20031;-75
2024/01/29 13:37:01;;;;;;;3.72;2.50;;;;;;;7.17;50.35;150472.66;10677365;27;20038;-75
2024/01/29 13:42:03;;;;;;;4.68;3.05;;;;;;;7.28;50.21;150501.03;10677784;27;20504;-77
2024/01/29 13:47:06;;;;;;;3.83;2.50;;;;;;;7.02;50.98;150435.34;10675804;27;20089;-73
2024/01/29 13:52:08;;;;;;;3.28;2.38;;;;;;;7.15;51.05;150467.53;10674840;27;20038;-74
2024/01/29 13:57:12;;;;;;;3.55;2.35;;;;;;;6.87;51.87;150398.03;10673723;27;20053;-74
2024/01/29 14:02:13;;;;;;;4.82;3.22;;;;;;;7.11;50.77;150457.22;10676600;27;20080;-75
2024/01/29 14:07:15;;;;;;;3.85;2.50;;;;;;;6.88;52.35;150399.31;10675827;27;20137;-74
2024/01/29 14:12:20;;;;;;;5.38;2.30;;;;;;;6.99;51.35;150428.88;10657146;27;20050;-75
2024/01/29 14:17:22;;;;;;;3.72;2.47;;;;;;;6.90;52.16;150405.72;10675454;27;20387;-75
2024/01/29 14:22:24;;;;;;;5.93;3.00;;;;;;;6.82;53.22;150386.44;10675556;27;20059;-75
2024/01/29 14:27:26;;;;;;;4.78;3.13;;;;;;;6.58;54.20;150324.63;10676080;27;20078;-75
2024/01/29 14:32:28;;;;;;;6.13;3.45;;;;;;;6.63;53.89;150336.19;10675904;27;20050;-74
2024/01/29 14:37:30;;;;;;;4.82;2.88;;;;;;;6.27;55.12;150247.41;10674214;27;20065;-74
2024/01/29 14:42:32;;;;;;;6.03;3.13;;;;;;;6.20;55.34;150229.41;10674386;27;20043;-75
2024/01/29 14:47:34;;;;;;;7.32;3.08;;;;;;;6.48;54.99;150300.19;10674593;27;20122;-74
2024/01/29 14:52:36;;;;;;;4.32;2.80;;;;;;;6.49;54.29;150302.75;10673747;27;20042;-75
2024/01/29 14:57:39;;;;;;;4.47;2.72;;;;;;;6.31;55.18;150256.41;10656215;27;20134;-74
2024/01/29 15:02:41;;;;;;;4.60;2.85;;;;;;;5.89;56.62;150150.88;10674965;27;20527;-75
2024/01/29 15:07:43;;;;;;;6.15;3.10;;;;;;;5.75;57.10;150116.09;10675522;27;20045;-74
2024/01/29 15:12:46;;;;;;;7.78;2.85;;;;;;;5.88;57.26;150148.28;10657758;27;20118;-75
2024/01/29 15:17:48;;;;;;;5.68;2.90;;;;;;;5.74;57.47;150113.53;10675339;27;20525;-75
2024/01/29 15:22:51;;;;;;;6.50;3.35;;;;;;;5.79;57.31;150126.41;10675138;27;20125;-75
2024/01/29 15:27:53;;;;;;;6.00;3.08;;;;;;;5.56;58.24;150068.53;10676922;27;20038;-78
2024/01/29 15:32:55;;;;;;;4.82;3.28;;;;;;;5.31;58.89;150004.22;10677605;27;20126;-74
2024/01/29 15:37:57;;;;;;;6.47;3.22;;;;;;;5.24;59.35;149986.25;10657566;27;20081;-76
2024/01/29 15:43:02;;;;;;;6.95;5.10;;;;;;;5.00;60.81;149925.78;10656182;27;20046;-76
2024/01/29 15:48:05;;;;;;;7.53;3.90;;;;;;;5.07;60.27;149943.81;10657140;27;20039;-77
2024/01/29 15:53:07;;;;;;;7.80;4.50;;;;;;;4.96;61.00;149915.53;10673348;27;20042;-77
2024/01/29 15:58:08;;;;;;;5.72;3.88;;;;;;;4.83;61.76;149883.41;10672433;27;20110;-76
2024/01/29 16:03:11;;;;;;;6.53;4.28;;;;;;;4.76;62.25;149865.41;10655286;27;20460;-75
2024/01/29 16:08:15;;;;;;;8.90;5.25;;;;;;;4.68;62.57;149844.81;10673939;27;20049;-76
2024/01/29 16:13:17;;;;;;;7.90;5.40;;;;;;;4.37;64.49;149767.72;10654193;27;20053;-76
2024/01/29 16:18:19;;;;;;;7.68;4.50;;;;;;;4.35;64.42;149761.31;10682245;27;20087;-75
2024/01/29 16:23:23;;;;;;;8.82;5.32;;;;;;;4.35;65.23;149761.31;10680464;27;20451;-75
2024/01/29 16:28:25;;;;;;;10.93;6.07;;;;;;;4.08;66.41;149693.25;10662090;27;20043;-74
2024/01/29 16:33:27;;;;;;;8.68;5.88;;;;;;;3.97;66.98;149666.25;10681274;27;20074;-75
2024/01/29 16:38:29;;;;;;;8.63;5.22;;;;;;;3.97;67.40;149666.25;10682601;27;20039;-76
2024/01/29 16:43:31;;;;;;;9.35;6.05;;;;;;;3.98;67.61;149668.78;10680911;27;20462;-75
2024/01/29 16:48:35;;;;;;;8.82;5.78;;;;;;;4.12;66.94;149704.78;10679887;27;20042;-75
2024/01/29 16:53:37;;;;;;;9.25;5.38;;;;;;;4.11;66.93;149700.91;10678758;27;20082;-75
2024/01/29 16:58:39;;;;;;;7.13;4.57;;;;;;;3.94;68.06;149659.84;10679975;27;20494;-76
2024/01/29 17:03:41;;;;;;;8.57;5.65;;;;;;;3.93;68.02;149655.97;10660805;27;20053;-76
2024/01/29 17:08:43;;;;;;;10.57;6.50;;;;;;;4.05;67.57;149686.78;10658873;27;20043;-74
2024/01/29 17:13:47;;;;;;;8.43;5.35;;;;;;;3.83;68.69;149631.56;10677046;27;20038;-76
2024/01/29 17:18:49;;;;;;;6.35;5.10;;;;;;;3.89;68.69;149646.97;10676672;27;20043;-76
2024/01/29 17:23:51;;;;;;;9.63;5.60;;;;;;;3.97;68.60;149666.25;10676419;27;20454;-75
2024/01/29 17:28:54;;;;;;;7.53;5.38;;;;;;;3.78;69.62;149618.72;10678056;27;20030;-75
2024/01/29 17:33:55;;;;;;;7.00;5.05;;;;;;;3.87;69.30;149641.84;10677997;27;20047;-74
2024/01/29 17:38:58;;;;;;;7.38;5.85;;;;;;;3.87;69.65;149640.56;10657852;27;20077;-76
2024/01/29 17:43:59;;;;;;;10.02;5.65;;;;;;;3.97;69.56;149667.50;10677520;27;20471;-76
2024/01/29 17:49:02;;;;;;;7.35;5.88;;;;;;;3.96;69.39;149664.97;10657555;27;20433;-76
2024/01/29 17:54:05;;;;;;;7.50;5.65;;;;;;;3.89;69.83;149646.97;10675636;27;20504;-75
2024/01/29 17:59:07;;;;;;;8.63;6.00;;;;;;;3.97;69.70;149666.25;10674700;27;20035;-75
2024/01/29 18:04:08;;;;;;;7.20;5.25;;;;;;;4.01;69.88;149676.50;10673014;27;20038;-76
2024/01/29 18:09:10;;;;;;;8.75;6.32;;;;;;;3.89;70.48;149645.69;10655780;27;20468;-74
2024/01/29 18:14:12;;;;;;;10.27;5.80;;;;;;;3.99;70.52;149672.69;10675044;27;20091;-74
2024/01/29 18:19:14;;;;;;;13.02;6.63;;;;;;;3.89;71.22;149645.69;10656799;27;20391;-75
2024/01/29 18:24:19;;;;;;;7.57;6.15;;;;;;;3.85;71.94;149636.72;10655498;27;20043;-75
2024/01/29 18:29:21;;;;;;;7.80;6.03;;;;;;;3.92;71.63;149653.41;10672807;27;20034;-75
2024/01/29 18:34:23;;;;;;;9.75;6.22;;;;;;;3.64;73.30;149584.06;10655481;27;20049;-76
2024/01/29 18:39:26;;;;;;;6.57;5.65;;;;;;;3.77;73.52;149616.16;10673591;27;20055;-75
2024/01/29 18:44:28;;;;;;;6.40;5.43;;;;;;;3.78;73.30;149618.72;10676025;27;20061;-76
2024/01/29 18:49:30;;;;;;;14.13;6.82;;;;;;;3.76;74.03;149614.88;10675651;27;20477;-78
2024/01/29 18:54:33;;;;;;;10.10;6.72;;;;;;;3.77;73.91;149616.16;10656694;27;20047;-76
2024/01/29 18:59:34;;;;;;;9.65;7.97;;;;;;;3.64;74.99;149582.78;10674321;27;20034;-75
2024/01/29 19:04:37;;;;;;;7.70;6.20;;;;;;;3.49;75.72;149545.50;10673446;27;20035;-75
2024/01/29 19:09:39;;;;;;;7.53;6.50;;;;;;;3.60;76.42;149573.78;10675280;27;20049;-75
2024/01/29 19:14:42;;;;;;;8.05;7.25;;;;;;;3.71;75.58;149600.72;10655185;27;20039;-75
2024/01/29 19:19:43;;;;;;;8.02;6.88;;;;;;;3.51;76.63;149551.94;10674635;27;20454;-75
2024/01/29 19:24:46;;;;;;;13.65;7.53;;;;;;;3.36;77.11;149513.41;10674126;27;20538;-76
2024/01/29 19:29:48;;;;;;;9.93;8.15;;;;;;;3.61;76.11;149576.34;10672873;27;20068;-76
2024/01/29 19:34:50;;;;;;;10.35;7.80;;;;;;;3.46;77.64;149539.13;10673511;27;20045;-74
2024/01/29 19:39:52;;;;;;;9.95;7.68;;;;;;;3.65;77.21;149586.63;10675088;27;20073;-74
2024/01/29 19:44:55;;;;;;;10.60;7.53;;;;;;;3.52;77.97;149554.50;10675537;27;20039;-74
2024/01/29 19:49:57;;;;;;;11.27;7.80;;;;;;;3.40;79.00;149523.69;10673887;27;20041;-74
2024/01/29 19:54:59;;;;;;;8.23;7.28;;;;;;;3.49;78.37;149545.50;10675234;27;20038;-73
2024/01/29 20:00:02;;;;;;;8.32;6.93;;;;;;;3.36;78.77;149513.41;10655379;27;20099;-73
2024/01/29 20:05:07;;;;;;;10.27;7.82;;;;;;;3.29;79.33;149496.75;10656774;27;20115;-73
2024/01/29 20:10:09;;;;;;;9.48;7.13;;;;;;;3.35;79.55;149509.56;10656280;27;20506;-75
2024/01/29 20:15:15;;;;;;;9.35;6.88;;;;;;;3.17;80.08;149464.66;10652348;27;20460;-73
2024/01/29 20:20:16;;;;;;;8.90;7.22;;;;;;;3.38;79.86;149517.28;10672695;27;20037;-74
2024/01/29 20:25:19;;;;;;;9.70;7.03;;;;;;;3.18;80.62;149468.47;10655030;27;20042;-73
2024/01/29 20:30:22;;;;;;;9.18;6.72;;;;;;;3.33;80.65;149505.75;10652948;27;20038;-73
2024/01/29 20:35:24;;;;;;;10.48;7.60;;;;;;;3.36;80.93;149512.13;10654830;27;20038;-74
2024/01/29 20:40:26;;;;;;;10.18;7.78;;;;;;;3.33;80.84;149505.75;10666851;27;20482;-75
2024/01/29 20:45:30;;;;;;;7.03;6.32;;;;;;;3.29;81.36;149496.75;10672844;27;20071;-74
2024/01/29 20:50:32;;;;;;;9.15;7.28;;;;;;;3.00;82.17;149422.28;10672089;27;20061;-74
2024/01/29 20:55:33;;;;;;;10.77;7.72;;;;;;;3.27;82.07;149490.31;10672343;27;20107;-76
2024/01/29 21:00:37;;;;;;;8.80;6.65;;;;;;;3.09;81.80;149445.38;10672999;27;20057;-77
2024/01/29 21:05:39;;;;;;;9.70;7.95;;;;;;;3.13;82.48;149454.38;10678737;27;20073;-75
2024/01/29 21:10:42;;;;;;;10.57;6.82;;;;;;;3.00;82.72;149422.28;10658744;27;20139;-75
2024/01/29 21:15:44;;;;;;;11.48;8.05;;;;;;;3.09;83.03;149444.09;10678064;27;20062;-75
2024/01/29 21:20:46;;;;;;;8.73;6.88;;;;;;;3.16;82.66;149463.38;10676749;27;20035;-75
2024/01/29 21:25:48;;;;;;;9.05;6.93;;;;;;;3.03;82.65;149430.00;10676877;27;20069;-75
2024/01/29 21:30:50;;;;;;;9.30;7.10;;;;;;;3.13;82.42;149455.66;10658903;27;20094;-75
2024/01/29 21:35:52;;;;;;;10.43;7.25;;;;;;;2.91;83.03;149399.19;10676069;27;20047;-76
2024/01/29 21:40:54;;;;;;;14.80;8.00;;;;;;;2.99;83.53;149421.00;10675915;27;20039;-75
2024/01/29 21:45:55;;;;;;;12.93;7.60;;;;;;;2.81;83.86;149374.81;10676710;27;20077;-75
2024/01/29 21:50:57;;;;;;;12.80;9.35;;;;;;;2.60;84.83;149320.91;10676024;27;20383;-74
2024/01/29 21:55:59;;;;;;;11.13;8.50;;;;;;;2.78;84.96;149368.38;10657713;27;20039;-75
2024/01/29 22:01:01;;;;;;;12.70;8.70;;;;;;;2.82;84.61;149376.09;10675833;27;20039;-74
2024/01/29 22:06:03;;;;;;;13.48;9.55;;;;;;;2.76;84.86;149362.00;10675513;27;20565;-74
2024/01/29 22:11:05;;;;;;;9.52;8.15;;;;;;;2.74;85.13;149358.09;10675441;27;20216;-76
2024/01/29 22:16:07;;;;;;;14.40;8.55;;;;;;;2.71;85.08;149350.44;10675923;27;20102;-77
2024/01/29 22:21:10;;;;;;;14.77;9.45;;;;;;;2.66;85.64;149336.34;10657985;27;20072;-76
2024/01/29 22:26:12;;;;;;;10.43;8.80;;;;;;;2.52;86.14;149302.97;10658047;27;20451;-76
2024/01/29 22:31:14;;;;;;;10.20;8.52;;;;;;;2.53;86.46;149304.25;10676827;27;20095;-76
2024/01/29 22:36:15;;;;;;;10.35;9.20;;;;;;;2.46;86.39;149287.56;10657354;27;20062;-76
2024/01/29 22:41:17;;;;;;;14.27;11.27;;;;;;;2.41;87.19;149274.75;10675590;27;20069;-76
2024/01/29 22:46:20;;;;;;;19.05;9.57;;;;;;;2.39;86.90;149269.63;10675847;27;20047;-76
2024/01/29 22:51:23;;;;;;;15.35;10.55;;;;;;;2.34;86.96;149255.47;10655748;27;20033;-76
2024/01/29 22:56:25;;;;;;;12.90;10.23;;;;;;;2.33;87.49;149252.94;10674041;27;20123;-76
2024/01/29 23:01:27;;;;;;;14.65;9.85;;;;;;;2.25;87.75;149233.69;10672516;27;20049;-77
2024/01/29 23:06:29;;;;;;;13.25;10.32;;;;;;;2.26;88.55;149236.28;10673347;27;20380;-76
2024/01/29 23:11:31;;;;;;;16.95;10.68;;;;;;;2.14;88.76;149206.75;10671798;27;20091;-77
2024/01/29 23:16:35;;;;;;;16.17;10.35;;;;;;;2.20;88.24;149222.13;10671482;27;20121;-77
2024/01/29 23:21:37;;;;;;;18.67;10.98;;;;;;;2.14;88.57;149206.75;10653718;27;20047;-76
2024/01/29 23:26:39;;;;;;;13.65;11.18;;;;;;;2.12;89.09;149201.59;10653679;27;20043;-77